Terminal Aerodrome Forecast
Issued by NWS

Home | Current Version | Previous Version | Text Only | Print | Product List | Glossary On
Versions: 1 2 3 4 5 6 7 8 9 10 11 12 13 14 15 16
342
FTUS45 KABQ 252340
TAFAEG
TAF
KAEG 252340Z 2600/2624 VRB20G30KT P6SM VCTS BKN100CB
     FM260300 20011KT P6SM VCSH BKN100
     FM260600 VRB06KT P6SM BKN100
     FM262000 24010KT P6SM SCT100
     FM262200 24011G21KT P6SM SCT100 BKN150=

USA.gov is the U.S. government's official web portal to all federal, state and local government web resources and services.